This is the latest recevied weather packets stored in our database for station/object N3WPH. If no packets are shown the sender has not sent any weather packets the latest 10 day(s).
| Time | Temp. | Humidity | Pressure | Rain* | Wind** | Luminosity | Snow |
|---|---|---|---|---|---|---|---|
| 1778039119 | 21.11° C | 45% | 1008.8 hPa | 0 mm | - | 0 W/m² | - |
| 1778038815 | 21.11° C | 44% | 1008.7 hPa | 0 mm | - | 0 W/m² | - |
| 1778038513 | 21.11° C | 44% | 1008.8 hPa | 0 mm | - | 0 W/m² | - |
| 1778038209 | 21.11° C | 45% | 1008.8 hPa | 0 mm | - | 0 W/m² | - |
| 1778037907 | 21.11° C | 45% | 1008.9 hPa | 0 mm | - | 0 W/m² | - |
| 1778037603 | 21.11° C | 44% | 1008.8 hPa | 0 mm | - | 0 W/m² | - |
| 1778037301 | 21.67° C | 45% | 1008.7 hPa | 0 mm | - | 0 W/m² | - |
| 1778036998 | 21.67° C | 44% | 1008.7 hPa | 0 mm | - | 0 W/m² | - |
| 1778036696 | 21.67° C | 44% | 1008.6 hPa | 0 mm | - | 0 W/m² | - |
| 1778036393 | 21.67° C | 45% | 1008.7 hPa | 0 mm | - | 0 W/m² | - |
| 1778036089 | 21.67° C | 45% | 1008.7 hPa | 0 mm | - | 0 W/m² | - |
| 1778035786 | 21.11° C | 45% | 1008.8 hPa | 0 mm | - | 0 W/m² | - |
| 1778035483 | 20.56° C | 47% | 1008.7 hPa | 0 mm | - | 0 W/m² | - |
| 1778035178 | 18.89° C | 53% | 1008.6 hPa | 0 mm | - | 0 W/m² | - |
| 1778034876 | 17.22° C | 63% | 1008.7 hPa | 0 mm | - | 0 W/m² | - |
| 1778034572 | 17.22° C | 64% | 1008.8 hPa | 0 mm | - | 0 W/m² | - |
| 1778034270 | 17.78° C | 63% | 1008.7 hPa | 0 mm | - | 0 W/m² | - |
| 1778033968 | 17.78° C | 62% | 1008.6 hPa | 0 mm | - | 0 W/m² | - |
| 1778033665 | 18.33° C | 60% | 1008.8 hPa | 0 mm | - | 0 W/m² | - |
| 1778033362 | 18.33° C | 59% | 1008.9 hPa | 0 mm | - | 0 W/m² | - |
| 1778033060 | 18.89° C | 57% | 1008.8 hPa | 0 mm | - | 0 W/m² | - |
| 1778032757 | 19.44° C | 55% | 1008.7 hPa | 0 mm | - | 0 W/m² | - |
| 1778032454 | 20° C | 55% | 1008.8 hPa | 0 mm | - | 0 W/m² | - |
| 1778032151 | 20° C | 54% | 1008.8 hPa | 0 mm | - | 0 W/m² | - |
| 1778031848 | 20° C | 52% | 1008.8 hPa | 0 mm | - | 0 W/m² | - |
* Rain latest hour (hover to see other rain measurements)
** Current wind speed in m/s (hover to see current wind gust speed)